Main page
METAR-TAF:

METAR-TAF

Airports :

Jacareacanga, Pará, Brazil

latitude: 06-16S, longitude: 057-44W, elevation: 98 m

Current weather observation

The report was made 19 hours and 43 minutes ago, at 21:00 UTC
Calm wind
Temperature 27°C
Humidity 89%
Pressure 1007 hPa
Visibility 10 km or more
Scattered clouds at a height of 2000 ft

METAR: SBEK 242100Z 00000KT 9999 SCT020 27/25 Q1007

Time: 13:43 (16:43 UTC)


TAF: missing

Weather observations and forecasts of more than 4000 airports (METAR and TAF reports).

The available stations are represented by yellow and red dots on the map.

Hover mouse over dot to see the name of the station.

Then click to see weather observations and forecasts.

To change the map : click on the green buttons with a black cross to zoom in, on the green button with a dash to zoom out, or on the green arrows for adjacent maps.


METAR-TAF: